Alpena, Arkansas
Current Conditions -  °F | °C
As of 1:53 AM on Saturday 29 Nov 2014 (Local Time) from KHRO Reporting Station
Clear Clear  
Wind Chill: 11°   Ceiling: Unl
Heat Index: 11°   Visibility: 10mi
Dew Point:   Wind: 5mph
Humidity: 80%   Direction: 170°S
Pressure: 29.87"   Gusts: NA
Location:  36.29°N, 93.29°W
Report Text: KHRO 290753Z AUTO 17004KT 10SM CLR 11/07 A2987 RMK AO2 SLP110 T01060072
Loading
Personal Weather Stations






























Interactive Weather Map New forecast layout! Learn more

10-Day Weather Forecast

Advertisements
Track Severe Weather on mobile